createdAt,value
2022-11-04T00:05:00.982Z,434.21
2022-11-04T00:10:08.114Z,433.85
2022-11-04T00:15:15.319Z,433.82
2022-11-04T00:20:22.543Z,435.66
2022-11-04T00:25:29.906Z,435.91
2022-11-04T00:30:36.932Z,436.26
2022-11-04T00:35:44.118Z,435.27
2022-11-04T00:40:51.362Z,438.20
2022-11-04T00:45:58.571Z,437.54
2022-11-04T00:51:05.892Z,438.38
2022-11-04T00:56:12.993Z,439.41
2022-11-04T01:01:20.385Z,440.27
2022-11-04T01:06:27.407Z,438.51
2022-11-04T01:11:34.624Z,438.47
2022-11-04T01:16:41.897Z,440.36
2022-11-04T01:21:49.075Z,439.76
2022-11-04T01:26:56.532Z,440.13
2022-11-04T01:32:03.707Z,440.13
2022-11-04T01:37:10.929Z,441.41
2022-11-04T01:42:18.147Z,441.42
2022-11-04T01:47:25.350Z,440.76
2022-11-04T01:52:32.555Z,442.57
2022-11-04T01:57:39.826Z,442.31
2022-11-04T02:02:47.031Z,443.04
2022-11-04T02:07:54.271Z,442.94
2022-11-04T02:13:01.457Z,444.31
2022-11-04T02:18:08.632Z,444.23
2022-11-04T02:23:15.903Z,444.23
2022-11-04T02:28:23.095Z,445.20
2022-11-04T02:33:30.358Z,444.95
2022-11-04T02:38:37.589Z,443.67
2022-11-04T02:43:44.729Z,443.13
2022-11-04T02:48:51.998Z,443.12
2022-11-04T02:53:59.182Z,445.53
2022-11-04T02:59:06.429Z,444.31
2022-11-04T03:04:13.589Z,443.72
2022-11-04T03:09:20.863Z,443.69
2022-11-04T03:14:28.113Z,444.95
2022-11-04T03:19:35.298Z,445.61
2022-11-04T03:24:42.532Z,442.70
2022-11-04T03:29:49.688Z,443.04
2022-11-04T03:34:56.927Z,441.78
2022-11-04T03:40:04.123Z,440.90
2022-11-04T03:45:11.300Z,441.62
2022-11-04T03:50:18.527Z,443.34
2022-11-04T03:55:27.069Z,446.06
2022-11-04T04:00:34.293Z,445.61
2022-11-04T04:05:41.483Z,444.70
2022-11-04T04:10:48.700Z,444.64
2022-11-04T04:15:55.889Z,444.72
2022-11-04T04:21:03.103Z,443.54
2022-11-04T04:26:10.570Z,443.53
2022-11-04T04:31:17.827Z,444.02
2022-11-04T04:36:25.056Z,443.43
2022-11-04T04:41:32.284Z,442.02
2022-11-04T04:46:39.449Z,443.41
2022-11-04T04:51:46.717Z,442.94
2022-11-04T04:56:53.975Z,443.35
2022-11-04T05:02:01.260Z,443.77
2022-11-04T05:07:08.348Z,442.84
2022-11-04T05:12:15.593Z,443.27
2022-11-04T05:17:22.761Z,444.74
2022-11-04T05:22:29.952Z,444.88
2022-11-04T05:27:37.172Z,445.07
2022-11-04T05:32:44.367Z,444.74
2022-11-04T05:37:51.535Z,445.66
2022-11-04T05:43:00.710Z,443.56
2022-11-04T05:48:07.896Z,442.48
2022-11-04T05:53:15.212Z,443.34
2022-11-04T05:58:22.418Z,445.03
2022-11-04T06:03:29.578Z,445.80
2022-11-04T06:08:41.044Z,446.35
2022-11-04T06:13:44.094Z,446.41
2022-11-04T06:18:51.352Z,445.23
2022-11-04T06:23:58.546Z,444.70
2022-11-04T06:29:05.763Z,443.49
2022-11-04T06:34:12.932Z,443.41
2022-11-04T06:39:20.175Z,443.69
2022-11-04T06:44:27.432Z,445.45
2022-11-04T06:49:34.635Z,446.39
2022-11-04T06:54:41.873Z,447.74
2022-11-04T06:59:49.150Z,448.18
2022-11-04T07:10:03.512Z,447.80
2022-11-04T07:15:10.729Z,448.38
2022-11-04T07:20:17.942Z,447.46
2022-11-04T07:25:25.211Z,446.71
2022-11-04T07:30:32.511Z,446.53
2022-11-04T07:35:39.735Z,446.62
2022-11-04T07:40:46.946Z,447.77
2022-11-04T07:45:54.139Z,447.41
2022-11-04T07:51:01.339Z,447.66
2022-11-04T07:56:08.554Z,448.51
2022-11-04T08:01:15.834Z,448.20
2022-11-04T08:06:24.043Z,448.05
2022-11-04T08:11:31.211Z,447.26
2022-11-04T08:16:38.445Z,444.06
2022-11-04T08:21:45.579Z,443.37
2022-11-04T08:26:52.802Z,444.51
2022-11-04T08:32:00.031Z,446.16
2022-11-04T08:37:07.233Z,447.64
2022-11-04T08:42:14.475Z,447.35
2022-11-04T08:47:22.004Z,448.03
2022-11-04T08:52:29.228Z,448.83
2022-11-04T08:57:36.449Z,449.67
2022-11-04T09:02:43.616Z,449.80
2022-11-04T09:07:50.791Z,451.04
2022-11-04T09:12:57.982Z,451.03
2022-11-04T09:18:05.385Z,451.09
2022-11-04T09:23:12.616Z,451.01
2022-11-04T09:28:19.567Z,451.03
2022-11-04T09:33:26.906Z,451.47
2022-11-04T09:38:33.991Z,451.56
2022-11-04T09:43:41.180Z,451.86
2022-11-04T09:48:48.497Z,451.75
2022-11-04T09:53:55.545Z,451.58
2022-11-04T09:59:02.714Z,451.88
2022-11-04T10:04:10.134Z,452.51
2022-11-04T10:09:18.548Z,452.78
2022-11-04T10:14:25.740Z,453.41
2022-11-04T10:19:33.110Z,453.67
2022-11-04T10:24:40.049Z,453.84
2022-11-04T10:29:47.252Z,454.29
2022-11-04T10:34:54.622Z,453.56
2022-11-04T10:40:01.760Z,453.72
2022-11-04T10:45:08.980Z,454.50
2022-11-04T10:50:32.048Z,454.31
2022-11-04T10:55:23.591Z,453.65
2022-11-04T11:00:32.471Z,454.54
2022-11-04T11:05:39.663Z,455.35
2022-11-04T11:10:46.842Z,455.68
2022-11-04T11:15:53.998Z,457.01
2022-11-04T11:21:01.237Z,457.56
2022-11-04T11:26:10.445Z,457.32
2022-11-04T11:31:17.837Z,457.59
2022-11-04T11:36:26.199Z,457.83
2022-11-04T11:41:33.469Z,457.90
2022-11-04T11:46:40.651Z,458.65
2022-11-04T11:51:47.898Z,458.71
2022-11-04T12:02:02.506Z,460.01
2022-11-04T12:12:16.905Z,460.18
2022-11-04T12:17:24.106Z,460.13
2022-11-04T12:22:31.325Z,459.82
2022-11-04T12:27:38.526Z,460.32
2022-11-04T12:32:45.722Z,461.09
2022-11-04T12:37:52.961Z,460.73
2022-11-04T12:43:00.108Z,460.77
2022-11-04T12:48:07.312Z,460.44
2022-11-04T12:53:14.551Z,460.31
2022-11-04T12:58:21.789Z,460.54
2022-11-04T13:03:28.968Z,460.16
2022-11-04T13:08:36.194Z,459.84
2022-11-04T13:13:46.291Z,459.65
2022-11-04T13:18:53.434Z,459.47
2022-11-04T13:24:00.660Z,460.24
2022-11-04T13:29:09.200Z,460.64
2022-11-04T13:34:22.095Z,460.67
2022-11-04T13:39:24.543Z,460.91
2022-11-04T13:44:31.817Z,460.56
2022-11-04T13:49:38.963Z,459.73
2022-11-04T13:54:46.223Z,459.43
2022-11-04T13:59:53.504Z,459.76
2022-11-04T14:05:00.666Z,460.23
2022-11-04T14:10:07.936Z,460.79
2022-11-04T14:15:15.209Z,460.97
2022-11-04T14:20:22.461Z,461.29
2022-11-04T14:25:29.711Z,461.42
2022-11-04T14:30:36.912Z,461.61
2022-11-04T14:35:44.339Z,461.20
2022-11-04T14:40:51.780Z,460.57
2022-11-04T14:45:58.977Z,460.07
2022-11-04T14:51:06.206Z,459.68
2022-11-04T14:56:14.994Z,459.63
2022-11-04T15:01:20.772Z,459.33
2022-11-04T15:06:40.259Z,458.71
2022-11-04T15:11:35.147Z,458.16
2022-11-04T15:16:42.311Z,458.45
2022-11-04T15:21:49.492Z,458.18
2022-11-04T15:26:57.021Z,457.91
2022-11-04T15:32:05.470Z,457.45
2022-11-04T15:37:12.541Z,457.08
2022-11-04T15:42:19.976Z,456.70
2022-11-04T15:47:27.250Z,456.29
2022-11-04T15:52:34.489Z,456.17
2022-11-04T15:57:42.001Z,455.20
2022-11-04T16:02:49.404Z,454.45
2022-11-04T16:07:56.930Z,453.59
2022-11-04T16:13:04.277Z,452.96
2022-11-04T16:18:11.706Z,452.37
2022-11-04T16:23:19.041Z,451.84
2022-11-04T16:28:26.562Z,451.85
2022-11-04T16:33:33.856Z,451.40
2022-11-04T16:38:41.346Z,450.93
2022-11-04T16:43:49.070Z,450.42
2022-11-04T16:48:57.607Z,449.86
2022-11-04T16:54:05.215Z,449.45
2022-11-04T16:59:12.955Z,448.62
2022-11-04T17:04:20.452Z,447.96
2022-11-04T17:09:27.854Z,447.38
2022-11-04T17:14:35.429Z,446.88
2022-11-04T17:19:42.774Z,445.98
2022-11-04T17:24:50.181Z,445.15
2022-11-04T17:29:58.049Z,444.71
2022-11-04T17:35:05.511Z,444.10
2022-11-04T17:40:13.124Z,442.60
2022-11-04T17:45:22.299Z,442.60
2022-11-04T17:50:29.541Z,441.84
2022-11-04T17:55:36.950Z,441.00
2022-11-04T18:00:44.632Z,440.02
2022-11-04T18:05:51.985Z,439.26
2022-11-04T18:10:59.203Z,439.02
2022-11-04T18:16:08.385Z,438.61
2022-11-04T18:21:15.632Z,437.91
2022-11-04T18:26:22.894Z,437.60
2022-11-04T18:31:30.206Z,437.32
2022-11-04T18:36:37.600Z,436.58
2022-11-04T18:41:45.426Z,435.70
2022-11-04T18:46:52.963Z,435.23
2022-11-04T18:52:00.651Z,435.31
2022-11-04T18:57:08.270Z,434.65
2022-11-04T19:02:16.246Z,433.82
2022-11-04T19:07:23.522Z,433.09
2022-11-04T19:12:31.212Z,432.75
2022-11-04T19:17:38.850Z,432.26
2022-11-04T19:22:46.435Z,431.91
2022-11-04T19:28:18.601Z,431.13
2022-11-04T19:33:01.487Z,431.03
2022-11-04T19:38:10.407Z,430.46
2022-11-04T19:43:17.818Z,429.39
2022-11-04T19:48:25.598Z,428.46
2022-11-04T19:53:33.047Z,427.45
2022-11-04T19:58:40.661Z,425.89
2022-11-04T20:03:48.290Z,424.29
2022-11-04T20:08:55.249Z,423.15
2022-11-04T20:14:07.792Z,422.29
2022-11-04T20:19:10.263Z,422.05
2022-11-04T20:24:17.386Z,421.24
2022-11-04T20:29:24.913Z,420.18
2022-11-04T20:34:33.033Z,418.88
2022-11-04T20:39:39.835Z,417.70
2022-11-04T20:44:47.057Z,417.36
2022-11-04T20:49:54.469Z,416.85
2022-11-04T20:55:03.084Z,415.93
2022-11-04T21:00:10.605Z,414.94
2022-11-04T21:05:18.172Z,413.85
2022-11-04T21:10:25.370Z,413.42
2022-11-04T21:15:32.931Z,412.76
2022-11-04T21:20:40.384Z,412.27
2022-11-04T21:25:47.801Z,411.73
2022-11-04T21:30:55.259Z,411.16
2022-11-04T21:36:02.926Z,410.53
2022-11-04T21:41:10.157Z,410.31
2022-11-04T21:46:17.339Z,410.05
2022-11-04T21:51:24.521Z,409.21
2022-11-04T21:56:31.784Z,408.75
2022-11-04T22:01:39.210Z,408.97
2022-11-04T22:06:46.308Z,408.57
2022-11-04T22:11:53.464Z,408.32
2022-11-04T22:17:00.720Z,407.58
2022-11-04T22:22:07.910Z,407.78
2022-11-04T22:27:15.071Z,407.61
2022-11-04T22:32:22.333Z,407.88
2022-11-04T22:37:29.611Z,408.46
2022-11-04T22:42:36.746Z,408.35
2022-11-04T22:47:43.955Z,408.21
2022-11-04T22:52:51.327Z,407.74
2022-11-04T22:57:58.579Z,406.95
2022-11-04T23:03:05.957Z,406.80
2022-11-04T23:08:13.081Z,406.11
2022-11-04T23:13:20.141Z,405.64
2022-11-04T23:18:27.374Z,404.84
2022-11-04T23:23:34.610Z,404.40
2022-11-04T23:28:41.930Z,404.50
2022-11-04T23:33:49.126Z,404.50
2022-11-04T23:38:58.037Z,403.76
2022-11-04T23:44:05.183Z,403.85
2022-11-04T23:49:12.432Z,402.98
2022-11-04T23:54:19.601Z,402.45
2022-11-04T23:59:26.820Z,401.88
